Time;durP1;ratioP1;P1;durP2;ratioP2;P2;SDS_P1;SDS_P2;PMS_P1;PMS_P2;Temp;Humidity;BMP_temperature;BMP_pressure;BME280_temperature;BME280_humidity;BME280_pressure;Samples;Min_cycle;Max_cycle;Signal;HPM_P1;HPM_P2
2023/06/10 00:02:16;;;;;;;8.50;4.45;;;;;;;-145.70;100.00;63560.63;5015318;28;20753;-59
2023/06/10 00:04:42;;;;;;;7.82;4.65;;;;;;;-145.70;100.00;63560.63;4996336;28;20030;-59
2023/06/10 00:07:08;;;;;;;9.70;4.85;;;;;;;-145.70;100.00;63560.63;5014856;28;20562;-61
2023/06/10 00:09:36;;;;;;;7.22;5.22;;;;;;;-145.70;100.00;63560.63;5015237;28;20464;-59
2023/06/10 00:12:05;;;;;;;8.63;4.78;;;;;;;-145.70;100.00;63560.63;5029845;28;20475;-59
2023/06/10 00:14:30;;;;;;;7.20;4.65;;;;;;;-145.70;100.00;63560.63;5004648;28;20426;-61
2023/06/10 00:16:58;;;;;;;7.80;4.75;;;;;;;-145.70;100.00;63560.63;5011102;28;20068;-59
2023/06/10 00:19:29;;;;;;;6.97;4.75;;;;;;;-145.70;100.00;63560.63;5034668;28;20121;-60
2023/06/10 00:21:56;;;;;;;8.77;5.10;;;;;;;-145.70;100.00;63560.63;5014841;28;20055;-61
2023/06/10 00:24:23;;;;;;;6.72;4.28;;;;;;;-145.70;100.00;63560.63;5012863;28;20120;-60
2023/06/10 00:26:49;;;;;;;7.18;4.57;;;;;;;-145.70;100.00;63560.63;5019917;28;20016;-62
2023/06/10 00:29:14;;;;;;;6.85;4.22;;;;;;;-145.70;100.00;63560.63;5011578;28;20049;-60
2023/06/10 00:31:46;;;;;;;7.40;4.57;;;;;;;-145.70;100.00;63560.63;5023284;28;20028;-59
2023/06/10 00:34:12;;;;;;;7.18;4.80;;;;;;;-145.70;100.00;63560.63;5013386;28;20029;-61
2023/06/10 00:36:40;;;;;;;9.52;5.13;;;;;;;-145.70;100.00;63560.63;5006041;28;20387;-59
2023/06/10 00:39:11;;;;;;;7.90;4.60;;;;;;;-145.70;100.00;63560.63;5028647;28;20029;-59
2023/06/10 00:41:58;;;;;;;10.27;5.05;;;;;;;-145.70;100.00;63560.63;5014262;28;20044;-59
2023/06/10 00:45:08;;;;;;;8.88;4.75;;;;;;;-145.70;100.00;63560.63;5032148;28;20044;-59
2023/06/10 00:47:35;;;;;;;9.63;5.15;;;;;;;-145.70;100.00;63560.63;5029896;28;20040;-59
2023/06/10 00:51:00;;;;;;;9.43;5.07;;;;;;;-145.70;100.00;63560.63;4997056;28;20068;-59
2023/06/10 00:54:25;;;;;;;8.10;4.45;;;;;;;-145.70;100.00;63560.63;5018939;28;20444;-59
2023/06/10 00:57:51;;;;;;;7.47;4.97;;;;;;;-145.70;100.00;63560.63;5010942;28;20502;-59
2023/06/10 01:01:17;;;;;;;7.93;4.30;;;;;;;-145.70;100.00;63560.63;5014322;28;20021;-60
2023/06/10 01:04:41;;;;;;;6.93;4.45;;;;;;;-145.70;100.00;63560.63;5025287;28;20041;-60
2023/06/10 01:08:19;;;;;;;7.65;4.78;;;;;;;-145.70;100.00;63560.63;5012792;28;20308;-59
2023/06/10 01:11:52;;;;;;;7.30;4.70;;;;;;;-145.70;100.00;63560.63;5028471;28;20036;-60
2023/06/10 01:15:22;;;;;;;8.57;4.93;;;;;;;-145.70;100.00;63560.63;5011725;28;20033;-59
2023/06/10 01:18:45;;;;;;;;;;;;;;;-145.70;100.00;63560.63;5005594;28;20029;-59
2023/06/10 01:22:28;;;;;;;6.97;4.53;;;;;;;-145.70;100.00;63560.63;5027089;28;19974;-58
2023/06/10 01:26:10;;;;;;;8.82;5.10;;;;;;;-145.70;100.00;63560.63;4996766;28;20566;-59
2023/06/10 01:29:37;;;;;;;7.40;4.70;;;;;;;-145.70;100.00;63560.63;5026927;28;20043;-60
2023/06/10 01:33:04;;;;;;;8.05;5.30;;;;;;;-145.70;100.00;63560.63;4999432;28;20040;-59
2023/06/10 01:36:31;;;;;;;6.60;4.47;;;;;;;-145.70;100.00;63560.63;5013963;28;20028;-59
2023/06/10 01:39:59;;;;;;;7.30;4.97;;;;;;;-145.70;100.00;63560.63;4990159;28;20120;-60
2023/06/10 01:43:05;;;;;;;6.95;4.78;;;;;;;-145.70;100.00;63560.63;5018639;28;20114;-61
2023/06/10 01:45:30;;;;;;;8.10;4.90;;;;;;;-145.70;100.00;63560.63;5009355;28;20040;-59
2023/06/10 01:47:58;;;;;;;8.15;5.05;;;;;;;-145.70;100.00;63560.63;5007121;28;20053;-60
2023/06/10 01:50:23;;;;;;;8.73;5.70;;;;;;;-145.70;100.00;63560.63;5024932;28;20781;-59
2023/06/10 01:52:49;;;;;;;7.85;5.55;;;;;;;-145.70;100.00;63560.63;5015177;28;20139;-60
2023/06/10 01:56:19;;;;;;;7.93;5.30;;;;;;;-145.70;100.00;63560.63;5016835;28;20037;-60
2023/06/10 01:59:32;;;;;;;7.50;5.30;;;;;;;-145.70;100.00;63560.63;5011294;28;20038;-60
2023/06/10 02:02:56;;;;;;;7.97;5.20;;;;;;;-145.70;100.00;63560.63;4995431;28;20088;-59
2023/06/10 02:06:22;;;;;;;7.75;5.28;;;;;;;-145.70;100.00;63560.63;5014730;28;20081;-63
2023/06/10 02:09:49;;;;;;;6.72;4.90;;;;;;;-145.70;100.00;63560.63;5008598;28;20034;-59
2023/06/10 02:13:15;;;;;;;9.05;6.40;;;;;;;-145.70;100.00;63560.63;5015551;28;20041;-60
2023/06/10 02:16:39;;;;;;;8.98;5.05;;;;;;;-145.70;100.00;63560.63;5002285;28;20029;-59
2023/06/10 02:20:06;;;;;;;8.15;4.80;;;;;;;-145.70;100.00;63560.63;4987131;28;20033;-59
2023/06/10 02:23:30;;;;;;;7.57;5.20;;;;;;;-145.70;100.00;63560.63;4997720;28;20030;-61
2023/06/10 02:26:55;;;;;;;7.90;5.18;;;;;;;-145.70;100.00;63560.63;4993049;28;20076;-61
2023/06/10 02:30:19;;;;;;;7.63;5.78;;;;;;;-145.70;100.00;63560.63;5012416;28;20049;-60
2023/06/10 02:33:48;;;;;;;9.23;6.13;;;;;;;-145.70;100.00;63560.63;4986173;28;20388;-60
2023/06/10 02:37:14;;;;;;;7.78;5.38;;;;;;;-145.70;100.00;63560.63;4990880;28;20036;-59
2023/06/10 02:40:40;;;;;;;9.27;5.68;;;;;;;-145.70;100.00;63560.63;5003091;28;20045;-60
2023/06/10 02:44:04;;;;;;;9.63;6.32;;;;;;;-145.70;100.00;63560.63;4981117;28;20029;-60
2023/06/10 02:47:29;;;;;;;9.23;6.07;;;;;;;-145.70;100.00;63560.63;4993669;28;20050;-59
2023/06/10 02:50:55;;;;;;;10.57;5.72;;;;;;;-145.70;100.00;63560.63;4996919;28;20143;-59
2023/06/10 02:54:20;;;;;;;9.02;5.85;;;;;;;-145.70;100.00;63560.63;4991035;28;20438;-60
2023/06/10 02:57:44;;;;;;;8.55;5.80;;;;;;;-145.70;100.00;63560.63;4989621;28;20420;-59
2023/06/10 03:01:11;;;;;;;8.60;5.57;;;;;;;-145.70;100.00;63560.63;5001547;28;20318;-59
2023/06/10 03:04:40;;;;;;;8.52;5.90;;;;;;;-145.70;100.00;63560.63;5010494;28;20056;-61
2023/06/10 03:08:05;;;;;;;9.98;6.25;;;;;;;-145.70;100.00;63560.63;4995581;28;20065;-59
2023/06/10 03:11:28;;;;;;;8.43;5.47;;;;;;;-145.70;100.00;63560.63;4985941;28;20527;-60
2023/06/10 03:14:52;;;;;;;7.72;5.68;;;;;;;-145.70;100.00;63560.63;5000760;28;20636;-60
2023/06/10 03:18:16;;;;;;;8.80;5.47;;;;;;;-145.70;100.00;63560.63;4987058;28;20081;-62
2023/06/10 03:21:43;;;;;;;7.63;5.30;;;;;;;-145.70;100.00;63560.63;5012159;28;20030;-59
2023/06/10 03:25:13;;;;;;;8.80;6.38;;;;;;;-145.70;100.00;63560.63;4967603;28;20030;-61
2023/06/10 03:28:41;;;;;;;8.23;5.95;;;;;;;-145.70;100.00;63560.63;5002724;28;20034;-60
2023/06/10 03:32:05;;;;;;;7.40;5.72;;;;;;;-145.70;100.00;63560.63;4983758;28;20021;-60
2023/06/10 03:35:29;;;;;;;8.23;5.85;;;;;;;-145.70;100.00;63560.63;4985185;28;20064;-59
2023/06/10 03:38:56;;;;;;;9.32;6.05;;;;;;;-145.70;100.00;63560.63;5001140;28;20045;-60
2023/06/10 03:42:20;;;;;;;9.30;6.18;;;;;;;-145.70;100.00;63560.63;4986936;28;20365;-58
2023/06/10 03:45:48;;;;;;;9.48;6.13;;;;;;;-145.70;100.00;63560.63;4975490;28;20424;-59
2023/06/10 03:49:12;;;;;;;9.63;6.18;;;;;;;-145.70;100.00;63560.63;4974109;28;20376;-60
2023/06/10 03:52:37;;;;;;;10.57;6.40;;;;;;;-145.70;100.00;63560.63;5009704;28;20017;-61
2023/06/10 03:56:01;;;;;;;8.63;6.15;;;;;;;-145.70;100.00;63560.63;4986462;28;20037;-59
2023/06/10 03:59:25;;;;;;;9.82;6.45;;;;;;;-145.70;100.00;63560.63;5006132;28;20116;-60
2023/06/10 04:02:51;;;;;;;9.90;6.22;;;;;;;-145.70;100.00;63560.63;4996368;28;20030;-58
2023/06/10 04:06:15;;;;;;;8.70;6.50;;;;;;;-145.70;100.00;63560.63;5013212;28;20034;-61
2023/06/10 04:09:40;;;;;;;11.52;6.70;;;;;;;-145.70;100.00;63560.63;5009570;28;20021;-63
2023/06/10 04:13:04;;;;;;;9.07;6.28;;;;;;;-145.70;100.00;63560.63;4977558;28;20041;-60
2023/06/10 04:16:28;;;;;;;11.32;6.78;;;;;;;-145.70;100.00;63560.63;5015256;28;20068;-58
2023/06/10 04:19:52;;;;;;;8.70;5.97;;;;;;;-145.70;100.00;63560.63;4999273;28;20468;-59
2023/06/10 04:23:17;;;;;;;8.60;6.22;;;;;;;-145.70;100.00;63560.63;5012560;28;20037;-60
2023/06/10 04:26:41;;;;;;;8.85;6.00;;;;;;;-145.70;100.00;63560.63;5013223;28;20459;-60
2023/06/10 04:30:07;;;;;;;9.00;6.00;;;;;;;-145.70;100.00;63560.63;5001112;28;20095;-59
2023/06/10 04:33:31;;;;;;;9.05;6.03;;;;;;;-145.70;100.00;63560.63;4981569;28;20039;-59
2023/06/10 04:36:55;;;;;;;9.23;6.43;;;;;;;-145.70;100.00;63560.63;4988413;28;20562;-62
2023/06/10 04:40:19;;;;;;;9.10;6.22;;;;;;;-145.70;100.00;63560.63;5001793;28;20033;-60
2023/06/10 04:43:46;;;;;;;10.30;7.10;;;;;;;-145.70;100.00;63560.63;4995040;28;20141;-61
2023/06/10 04:47:10;;;;;;;10.25;6.97;;;;;;;-145.70;100.00;63560.63;5009607;28;20034;-59
2023/06/10 04:50:34;;;;;;;9.13;7.00;;;;;;;-145.70;100.00;63560.63;4994670;28;20061;-59
2023/06/10 04:53:58;;;;;;;10.23;6.78;;;;;;;-145.70;100.00;63560.63;5015809;28;20029;-60
2023/06/10 04:57:24;;;;;;;11.07;7.13;;;;;;;-145.70;100.00;63560.63;5004911;28;20020;-59
2023/06/10 05:00:54;;;;;;;9.50;6.68;;;;;;;-145.70;100.00;63560.63;4987984;28;20029;-60
2023/06/10 05:04:18;;;;;;;10.05;6.95;;;;;;;-145.70;100.00;63560.63;4991457;28;20053;-60
2023/06/10 05:07:44;;;;;;;8.98;6.88;;;;;;;-145.70;100.00;63560.63;5016216;28;20049;-60
2023/06/10 05:11:08;;;;;;;9.90;6.47;;;;;;;-145.70;100.00;63560.63;5012372;28;20033;-60
2023/06/10 05:14:32;;;;;;;10.32;6.85;;;;;;;-145.70;100.00;63560.63;5025207;28;20125;-60
2023/06/10 05:17:57;;;;;;;10.73;7.15;;;;;;;-145.70;100.00;63560.63;5025111;28;20040;-59
2023/06/10 05:21:21;;;;;;;9.88;7.32;;;;;;;-145.70;100.00;63560.63;5011518;28;20025;-61
2023/06/10 05:24:45;;;;;;;8.68;6.43;;;;;;;-145.70;100.00;63560.63;5015180;28;20017;-60
2023/06/10 05:28:09;;;;;;;8.85;6.45;;;;;;;-145.70;100.00;63560.63;5013842;28;20029;-60
2023/06/10 05:31:36;;;;;;;10.00;6.93;;;;;;;-145.70;100.00;63560.63;5013048;28;20040;-60
2023/06/10 05:35:04;;;;;;;10.52;6.80;;;;;;;-145.70;100.00;63560.63;5022280;28;20148;-60
2023/06/10 05:38:28;;;;;;;8.30;6.30;;;;;;;-145.70;100.00;63560.63;4994231;28;20029;-61
2023/06/10 05:41:46;;;;;;;9.07;6.15;;;;;;;-145.70;100.00;63560.63;5017001;28;20043;-60
2023/06/10 05:45:10;;;;;;;7.90;5.70;;;;;;;-145.70;100.00;63560.63;5017563;28;20034;-60
2023/06/10 05:48:34;;;;;;;8.98;6.05;;;;;;;-145.70;100.00;63560.63;5006677;28;20029;-60
2023/06/10 05:51:58;;;;;;;7.97;5.80;;;;;;;-145.70;100.00;63560.63;5021110;28;20041;-59
2023/06/10 05:55:22;;;;;;;8.57;6.30;;;;;;;-145.70;100.00;63560.63;5015307;28;20034;-59
2023/06/10 05:58:56;;;;;;;11.18;7.00;;;;;;;-145.70;100.00;63560.63;5018066;28;20017;-60
2023/06/10 06:02:20;;;;;;;11.23;6.20;;;;;;;-145.70;100.00;63560.63;5015906;28;20152;-59
2023/06/10 06:05:44;;;;;;;8.85;6.78;;;;;;;-145.70;100.00;63560.63;4982512;28;20159;-59
2023/06/10 06:09:10;;;;;;;8.73;6.30;;;;;;;-145.70;100.00;63560.63;5014063;28;20041;-59
2023/06/10 06:12:37;;;;;;;9.85;6.47;;;;;;;-145.70;100.00;63560.63;5035207;28;20044;-60
2023/06/10 06:16:01;;;;;;;9.65;6.55;;;;;;;-145.70;100.00;63560.63;5028482;28;20025;-60
2023/06/10 06:19:30;;;;;;;8.98;6.07;;;;;;;-145.70;100.00;63560.63;5025216;28;20025;-60
2023/06/10 06:22:56;;;;;;;9.50;6.47;;;;;;;-145.70;100.00;63560.63;4985211;28;20037;-60
2023/06/10 06:26:22;;;;;;;9.07;6.25;;;;;;;-145.70;100.00;63560.63;5013511;28;20495;-61
2023/06/10 06:29:46;;;;;;;8.68;6.30;;;;;;;-145.70;100.00;63560.63;4998460;28;20028;-60
2023/06/10 06:33:10;;;;;;;8.20;6.13;;;;;;;-145.70;100.00;63560.63;5025621;28;20810;-58
2023/06/10 06:36:34;;;;;;;9.35;6.55;;;;;;;-145.70;100.00;63560.63;5011317;28;20029;-59
2023/06/10 06:40:00;;;;;;;9.95;6.15;;;;;;;-145.70;100.00;63560.63;4995294;28;20037;-62
2023/06/10 06:43:24;;;;;;;10.60;6.22;;;;;;;-145.70;100.00;63560.63;5010864;28;20037;-61
2023/06/10 06:46:48;;;;;;;8.43;6.25;;;;;;;-145.70;100.00;63560.63;5015089;28;20039;-60
2023/06/10 06:50:15;;;;;;;8.48;6.40;;;;;;;-145.70;100.00;63560.63;5018956;28;20027;-60
2023/06/10 06:53:44;;;;;;;10.00;6.70;;;;;;;-145.70;100.00;63560.63;4989613;28;20033;-61
2023/06/10 06:57:08;;;;;;;10.82;6.93;;;;;;;-145.70;100.00;63560.63;5012912;28;20056;-61
2023/06/10 07:00:32;;;;;;;9.05;6.57;;;;;;;-145.70;100.00;63560.63;5010056;28;20033;-61
2023/06/10 07:03:23;;;;;;;9.00;6.90;;;;;;;-145.70;100.00;63560.63;5005583;28;21147;-60
2023/06/10 07:06:47;;;;;;;8.55;6.43;;;;;;;-145.70;100.00;63560.63;5012676;28;20048;-60
2023/06/10 07:10:11;;;;;;;8.52;6.50;;;;;;;-145.70;100.00;63560.63;4965580;28;20070;-60
2023/06/10 07:13:35;;;;;;;10.23;7.10;;;;;;;-145.70;100.00;63560.63;5025678;28;20117;-60
2023/06/10 07:16:59;;;;;;;8.75;6.97;;;;;;;-145.70;100.00;63560.63;5023717;28;20485;-62
2023/06/10 07:20:23;;;;;;;10.88;7.38;;;;;;;-145.70;100.00;63560.63;5010416;28;20109;-60
2023/06/10 07:23:47;;;;;;;10.85;7.45;;;;;;;-145.70;100.00;63560.63;5034078;28;20048;-61
2023/06/10 07:27:11;;;;;;;10.13;8.07;;;;;;;-145.70;100.00;63560.63;5002114;28;20119;-60
2023/06/10 07:30:35;;;;;;;10.50;7.88;;;;;;;-145.70;100.00;63560.63;5007421;28;20040;-59
2023/06/10 07:34:01;;;;;;;12.65;8.18;;;;;;;-145.70;100.00;63560.63;4993731;28;20392;-60
2023/06/10 07:37:25;;;;;;;10.98;7.75;;;;;;;-145.70;100.00;63560.63;4998921;28;20025;-61
2023/06/10 07:40:49;;;;;;;9.52;7.55;;;;;;;-145.70;100.00;63560.63;4998487;28;20560;-60
2023/06/10 07:44:13;;;;;;;9.40;7.32;;;;;;;-145.70;100.00;63560.63;5004814;28;20112;-61
2023/06/10 07:47:37;;;;;;;9.95;7.47;;;;;;;-145.70;100.00;63560.63;5013339;28;20156;-62
2023/06/10 07:51:01;;;;;;;10.77;7.70;;;;;;;-145.70;100.00;63560.63;4995814;28;20035;-60
2023/06/10 07:54:25;;;;;;;11.70;8.40;;;;;;;-145.70;100.00;63560.63;5017219;28;20037;-60
2023/06/10 07:57:49;;;;;;;10.45;7.60;;;;;;;-145.70;100.00;63560.63;5034800;28;20096;-59
2023/06/10 08:01:13;;;;;;;10.82;7.97;;;;;;;-145.70;100.00;63560.63;5015349;28;20021;-63
2023/06/10 08:04:44;;;;;;;11.18;8.30;;;;;;;-145.70;100.00;63560.63;5008354;28;20060;-60
2023/06/10 08:08:10;;;;;;;11.70;8.30;;;;;;;-145.70;100.00;63560.63;5003601;28;20049;-62
2023/06/10 08:11:34;;;;;;;12.23;8.45;;;;;;;-145.70;100.00;63560.63;5025254;28;20683;-60
2023/06/10 08:14:54;;;;;;;11.63;9.02;;;;;;;-145.70;100.00;63560.63;5008689;28;20242;-59
2023/06/10 08:18:18;;;;;;;11.18;8.43;;;;;;;-145.70;100.00;63560.63;5006012;28;20034;-60
2023/06/10 08:21:42;;;;;;;12.70;9.50;;;;;;;-145.70;100.00;63560.63;5030986;28;20155;-60
2023/06/10 08:25:08;;;;;;;12.75;9.07;;;;;;;-145.70;100.00;63560.63;5015208;28;20051;-60
2023/06/10 08:28:32;;;;;;;12.63;8.95;;;;;;;-145.70;100.00;63560.63;5018700;28;20052;-59
2023/06/10 08:31:55;;;;;;;13.52;8.88;;;;;;;-145.70;100.00;63560.63;5023632;28;20499;-58
2023/06/10 08:35:37;;;;;;;11.65;8.93;;;;;;;-145.70;100.00;63560.63;5013859;28;20203;-59
2023/06/10 08:39:01;;;;;;;13.55;8.80;;;;;;;-145.70;100.00;63560.63;5018493;28;20167;-59
2023/06/10 08:42:33;;;;;;;12.82;9.40;;;;;;;-145.70;100.00;63560.63;5015402;28;20348;-61
2023/06/10 08:46:00;;;;;;;12.15;9.90;;;;;;;-145.70;100.00;63560.63;5016822;28;20040;-61
2023/06/10 08:49:26;;;;;;;12.40;9.70;;;;;;;-145.70;100.00;63560.63;4993627;28;20471;-59
2023/06/10 08:52:54;;;;;;;14.20;10.45;;;;;;;-145.70;100.00;63560.63;5031388;28;20037;-59
2023/06/10 08:56:25;;;;;;;12.90;10.10;;;;;;;-145.70;100.00;63560.63;5017911;28;20840;-59
2023/06/10 08:59:52;;;;;;;12.65;10.07;;;;;;;-145.70;100.00;63560.63;5011699;28;20091;-61
2023/06/10 09:03:16;;;;;;;15.25;10.88;;;;;;;-145.70;100.00;63560.63;5000748;28;20036;-58
2023/06/10 09:06:43;;;;;;;11.38;9.15;;;;;;;-145.70;100.00;63560.63;5008163;28;20072;-60
2023/06/10 09:10:07;;;;;;;10.75;8.40;;;;;;;-145.70;100.00;63560.63;5018121;28;20087;-60
2023/06/10 09:13:34;;;;;;;15.73;11.43;;;;;;;-145.70;100.00;63560.63;5003963;28;20158;-60
2023/06/10 09:16:59;;;;;;;9.98;8.25;;;;;;;-145.70;100.00;63560.63;5031297;28;20025;-61
2023/06/10 09:20:28;;;;;;;12.20;8.88;;;;;;;-145.70;100.00;63560.63;5010687;28;20080;-60
2023/06/10 09:23:52;;;;;;;11.50;8.50;;;;;;;-145.70;100.00;63560.63;5021061;28;20009;-59
2023/06/10 09:27:16;;;;;;;11.95;8.98;;;;;;;-145.70;100.00;63560.63;4998590;28;20185;-60
2023/06/10 09:30:44;;;;;;;12.32;9.35;;;;;;;-145.70;100.00;63560.63;5011467;28;20064;-61
2023/06/10 09:34:13;;;;;;;12.02;9.65;;;;;;;-145.70;100.00;63560.63;5009411;28;20044;-62
2023/06/10 09:37:40;;;;;;;14.25;9.20;;;;;;;-145.70;100.00;63560.63;4992340;28;20022;-59
2023/06/10 09:41:07;;;;;;;12.38;9.13;;;;;;;-145.70;100.00;63560.63;5011383;28;20024;-61
2023/06/10 09:44:41;;;;;;;13.13;8.90;;;;;;;-145.70;100.00;63560.63;5000401;28;20029;-60
2023/06/10 09:48:05;;;;;;;12.65;10.05;;;;;;;-145.70;100.00;63560.63;5008941;28;20029;-60
2023/06/10 09:51:32;;;;;;;11.55;9.07;;;;;;;-145.70;100.00;63560.63;5027582;28;20044;-59
2023/06/10 09:55:03;;;;;;;13.77;9.68;;;;;;;-145.70;100.00;63560.63;4989677;28;20033;-59
2023/06/10 09:58:35;;;;;;;15.38;9.98;;;;;;;-145.70;100.00;63560.63;5004713;28;20566;-60
2023/06/10 10:02:04;;;;;;;13.32;9.82;;;;;;;-145.70;100.00;63560.63;4996581;28;20842;-59
2023/06/10 10:05:32;;;;;;;11.48;8.80;;;;;;;-145.70;100.00;63560.63;5009522;28;20060;-59
2023/06/10 10:08:56;;;;;;;10.30;8.43;;;;;;;-145.70;100.00;63560.63;5005564;28;20076;-60
2023/06/10 10:12:20;;;;;;;12.57;9.52;;;;;;;-145.70;100.00;63560.63;5013191;28;20040;-60
2023/06/10 10:15:45;;;;;;;13.45;9.95;;;;;;;-145.70;100.00;63560.63;5026953;28;20041;-60
2023/06/10 10:19:18;;;;;;;13.32;9.18;;;;;;;-145.70;100.00;63560.63;5032422;28;20029;-60
2023/06/10 10:22:53;;;;;;;10.68;8.43;;;;;;;-145.70;100.00;63560.63;5010850;28;20763;-60
2023/06/10 10:26:30;;;;;;;14.07;9.23;;;;;;;-145.70;100.00;63560.63;5010349;28;20037;-64
2023/06/10 10:30:17;;;;;;;10.90;7.95;;;;;;;-145.70;100.00;63560.63;5008708;28;20049;-60
2023/06/10 10:33:54;;;;;;;10.80;8.50;;;;;;;-145.70;100.00;63560.63;5012565;28;20064;-59
2023/06/10 10:37:18;;;;;;;10.45;7.72;;;;;;;-145.70;100.00;63560.63;5028499;28;20850;-59
2023/06/10 10:40:46;;;;;;;11.20;8.35;;;;;;;-145.70;100.00;63560.63;4999348;28;20735;-61
2023/06/10 10:44:16;;;;;;;10.68;7.60;;;;;;;-145.70;100.00;63560.63;5008159;28;20060;-59
2023/06/10 10:47:43;;;;;;;11.13;7.22;;;;;;;-145.70;100.00;63560.63;4983313;28;20444;-60
2023/06/10 10:51:16;;;;;;;9.68;7.30;;;;;;;-145.70;100.00;63560.63;5003758;28;20041;-59
2023/06/10 10:54:43;;;;;;;9.57;6.80;;;;;;;-145.70;100.00;63560.63;5025139;28;20083;-60
2023/06/10 10:58:08;;;;;;;9.40;7.22;;;;;;;-145.70;100.00;63560.63;5006632;28;20036;-59
2023/06/10 11:01:46;;;;;;;9.27;7.25;;;;;;;-145.70;100.00;63560.63;4993707;28;20029;-59
2023/06/10 11:05:13;;;;;;;14.73;7.90;;;;;;;-145.70;100.00;63560.63;5006794;28;20140;-58
2023/06/10 11:08:42;;;;;;;10.35;7.40;;;;;;;-145.70;100.00;63560.63;4998490;28;20700;-60
2023/06/10 11:12:06;;;;;;;;;;;;;;;-145.70;100.00;63560.63;5020116;28;20053;-59
2023/06/10 11:15:30;;;;;;;10.15;7.80;;;;;;;-145.70;100.00;63560.63;5011552;28;20024;-59
2023/06/10 11:19:06;;;;;;;10.93;8.40;;;;;;;-145.70;100.00;63560.63;5019372;28;21175;-60
2023/06/10 11:22:30;;;;;;;11.35;7.38;;;;;;;-145.70;100.00;63560.63;5014406;28;20059;-59
2023/06/10 11:26:12;;;;;;;9.25;6.88;;;;;;;-145.70;100.00;63560.63;5003356;28;20462;-58
2023/06/10 11:29:37;;;;;;;10.48;7.70;;;;;;;-145.70;100.00;63560.63;5015192;28;20100;-58
2023/06/10 11:33:04;;;;;;;8.95;7.20;;;;;;;-145.70;100.00;63560.63;5006762;28;20036;-60
2023/06/10 11:36:28;;;;;;;12.35;7.65;;;;;;;-145.70;100.00;63560.63;5006911;28;20055;-63
2023/06/10 11:39:03;;;;;;;10.25;7.63;;;;;;;-145.70;100.00;63560.63;5017188;28;20025;-60
2023/06/10 11:42:27;;;;;;;12.55;8.40;;;;;;;-145.70;100.00;63560.63;5033731;28;20111;-60
2023/06/10 11:45:55;;;;;;;11.90;8.25;;;;;;;-145.70;100.00;63560.63;5017396;28;20055;-59
2023/06/10 11:49:22;;;;;;;14.63;9.10;;;;;;;-145.70;100.00;63560.63;5032113;28;20275;-61
2023/06/10 11:52:46;;;;;;;10.60;8.75;;;;;;;-145.70;100.00;63560.63;5029827;28;20840;-60
2023/06/10 11:56:12;;;;;;;11.85;8.00;;;;;;;-145.70;100.00;63560.63;5033937;28;20036;-57
2023/06/10 11:59:41;;;;;;;10.75;8.32;;;;;;;-145.70;100.00;63560.63;5037562;28;20226;-60
2023/06/10 12:03:15;;;;;;;11.77;8.60;;;;;;;-145.70;100.00;63560.63;5009925;28;20074;-65
2023/06/10 12:06:55;;;;;;;11.75;8.40;;;;;;;-145.70;100.00;63560.63;5013352;28;20044;-59
2023/06/10 12:09:33;;;;;;;13.27;8.95;;;;;;;-145.70;100.00;63560.63;4992233;28;20317;-62
2023/06/10 12:12:58;;;;;;;12.02;8.15;;;;;;;-145.70;100.00;63560.63;5029944;28;20021;-59
2023/06/10 12:16:22;;;;;;;10.88;7.93;;;;;;;-145.70;100.00;63560.63;5021655;28;20106;-61
2023/06/10 12:18:48;;;;;;;11.32;8.00;;;;;;;-145.70;100.00;63560.63;5017292;28;20143;-59
2023/06/10 12:21:23;;;;;;;13.10;9.50;;;;;;;-145.70;100.00;63560.63;5029545;28;20151;-60
2023/06/10 12:24:07;;;;;;;10.95;7.18;;;;;;;-145.70;100.00;63560.63;4999573;28;20595;-62
2023/06/10 12:26:44;;;;;;;10.77;7.63;;;;;;;-145.70;100.00;63560.63;5013688;28;21327;-60
2023/06/10 12:29:22;;;;;;;10.15;8.00;;;;;;;-145.70;100.00;63560.63;5017632;28;20052;-60
2023/06/10 12:32:05;;;;;;;10.18;7.10;;;;;;;-145.70;100.00;63560.63;5005002;28;20366;-60
2023/06/10 12:34:38;;;;;;;10.48;7.88;;;;;;;-145.70;100.00;63560.63;5033187;28;20603;-62
2023/06/10 12:38:06;;;;;;;9.45;7.13;;;;;;;-145.70;100.00;63560.63;5012366;28;20116;-61
2023/06/10 12:41:33;;;;;;;10.70;7.13;;;;;;;-145.70;100.00;63560.63;5019520;28;20036;-58
2023/06/10 12:45:00;;;;;;;9.55;7.47;;;;;;;-145.70;100.00;63560.63;5013410;28;20063;-64
2023/06/10 12:48:34;;;;;;;11.45;7.78;;;;;;;-145.70;100.00;63560.63;5020742;28;20745;-60
2023/06/10 12:52:01;;;;;;;9.23;7.15;;;;;;;-145.70;100.00;63560.63;5017026;28;20090;-61
2023/06/10 12:55:25;;;;;;;7.85;6.45;;;;;;;-145.70;100.00;63560.63;5031479;28;20612;-61
2023/06/10 12:58:51;;;;;;;9.85;6.95;;;;;;;-145.70;100.00;63560.63;5030299;28;20045;-59
2023/06/10 13:02:18;;;;;;;10.18;7.18;;;;;;;-145.70;100.00;63560.63;5028351;28;20087;-61
2023/06/10 13:05:43;;;;;;;9.38;6.80;;;;;;;-145.70;100.00;63560.63;5016892;28;20128;-60
2023/06/10 13:08:10;;;;;;;9.45;6.90;;;;;;;-145.70;100.00;63560.63;4994080;28;20052;-61
2023/06/10 13:11:35;;;;;;;10.52;6.90;;;;;;;-145.70;100.00;63560.63;5010534;28;20430;-60
2023/06/10 13:14:59;;;;;;;9.40;6.85;;;;;;;-145.70;100.00;63560.63;5000313;28;20029;-61
2023/06/10 13:18:22;;;;;;;9.88;7.25;;;;;;;-145.70;100.00;63560.63;5024997;28;20033;-60
2023/06/10 13:21:46;;;;;;;11.02;7.30;;;;;;;-145.70;100.00;63560.63;5034742;28;20020;-57
2023/06/10 13:25:10;;;;;;;8.70;6.57;;;;;;;-145.70;100.00;63560.63;5021410;28;20047;-57
2023/06/10 13:28:34;;;;;;;9.00;6.78;;;;;;;-145.70;100.00;63560.63;5026615;28;20041;-57
2023/06/10 13:31:58;;;;;;;9.48;7.10;;;;;;;-145.70;100.00;63560.63;5023329;28;20040;-59
2023/06/10 13:35:27;;;;;;;10.57;7.05;;;;;;;-145.70;100.00;63560.63;5022519;28;20025;-58
2023/06/10 13:38:53;;;;;;;10.95;7.57;;;;;;;-145.70;100.00;63560.63;5029219;28;20116;-58
2023/06/10 13:42:17;;;;;;;9.40;7.03;;;;;;;-145.70;100.00;63560.63;5017116;28;20050;-59
2023/06/10 13:45:43;;;;;;;9.20;6.32;;;;;;;-145.70;100.00;63560.63;5028335;28;20100;-57
2023/06/10 13:49:07;;;;;;;10.15;6.78;;;;;;;-145.70;100.00;63560.63;5026639;28;20099;-58
2023/06/10 13:52:31;;;;;;;11.43;6.75;;;;;;;-145.70;100.00;63560.63;5020282;28;20120;-57
2023/06/10 13:55:59;;;;;;;10.77;6.60;;;;;;;-145.70;0.00;63560.63;5022083;28;20665;-57
2023/06/10 13:58:25;;;;;;;8.80;6.35;;;;;;;-145.70;100.00;63560.63;5023068;28;20500;-58
2023/06/10 14:00:50;;;;;;;11.20;6.57;;;;;;;-145.70;100.00;63560.63;4990689;28;20029;-58
2023/06/10 14:03:18;;;;;;;10.77;6.10;;;;;;;-145.70;100.00;63560.63;5017659;28;20056;-60
2023/06/10 14:05:43;;;;;;;8.05;6.10;;;;;;;-145.70;100.00;63560.63;5003932;28;20105;-59
2023/06/10 14:08:09;;;;;;;8.82;6.38;;;;;;;-145.70;100.00;63560.63;5008358;28;20828;-58
2023/06/10 14:10:34;;;;;;;7.57;5.88;;;;;;;-145.70;100.00;63560.63;4985549;28;20041;-58
2023/06/10 14:13:02;;;;;;;8.63;5.97;;;;;;;-145.70;100.00;63560.63;4997150;28;20022;-58
2023/06/10 14:15:30;;;;;;;7.63;6.00;;;;;;;-145.70;100.00;63560.63;4992483;28;20060;-58
2023/06/10 14:18:55;;;;;;;8.50;5.50;;;;;;;-145.70;100.00;63560.63;4985901;28;20029;-57
2023/06/10 14:22:24;;;;;;;9.20;5.85;;;;;;;-145.70;100.00;63560.63;5009171;28;20029;-58
2023/06/10 14:25:50;;;;;;;10.20;5.63;;;;;;;-145.70;100.00;63560.63;5004881;28;20028;-59
2023/06/10 14:29:18;;;;;;;7.93;5.80;;;;;;;-145.70;100.00;63560.63;4997734;28;20533;-57
2023/06/10 14:32:42;;;;;;;8.40;5.80;;;;;;;-145.70;100.00;63560.63;5006369;28;20471;-58
2023/06/10 14:36:06;;;;;;;7.30;5.30;;;;;;;-145.70;100.00;63560.63;4993389;28;20153;-57
2023/06/10 14:39:30;;;;;;;7.97;5.22;;;;;;;-145.70;100.00;63560.63;5007275;28;20034;-59
2023/06/10 14:42:54;;;;;;;8.65;5.28;;;;;;;-145.70;100.00;63560.63;5008543;28;20152;-58
2023/06/10 14:46:20;;;;;;;10.15;5.10;;;;;;;-145.70;100.00;63560.63;5012857;28;20108;-59
2023/06/10 14:49:44;;;;;;;8.50;5.75;;;;;;;-145.70;100.00;63560.63;4980355;28;20034;-57
2023/06/10 14:53:08;;;;;;;7.57;5.20;;;;;;;-145.70;100.00;63560.63;5007224;28;20030;-59
2023/06/10 14:55:50;;;;;;;7.18;4.90;;;;;;;-145.70;100.00;63560.63;4975904;28;20048;-59